Hlavní strana
METAR-TAF:

METAR-TAF

Letiště :

Mudgee, Austrálie

zeměpisná šířka: 32-33-45S, zeměpisná délka: 149-36-40E, výška: 471 m

Aktuální stav počasí

Zpráva byla vytvořena před 35 minutami, v 13:00 UTC
Jihojihovýchodní vítr 9 kt
Teplota 16°C
Vlhkost vzduchu 72%
Tlak 1024 hPa
Viditelnost 10 km a více
Zataženo ve výšce 2700 ft

METAR: YMDG 081300Z AUTO 15009KT 9999 // OVC027 16/11 Q1024

Čas: 23:35 (13:35 UTC)


TAF: chybějící

Stav a předpovědi počasí z více než 4 000 letišť (zprávy METAR a TAF).

Červené a žluté tečky na mapě představují dostupné meteorologické stanice.

Když kurzor umístíte na tečku, zobrazí se název stanice.

Pak kliknutím zobrazíte stav a předpověď počasí.

Chcete-li změnit mapu, kliknutím na zelené tlačítko se znaménkem +mapu přiblížíte, kliknutím na zelené tlačítko se znaménkem – mapu oddálíte a kliknutím na zelené šipky přejdete na sousední mapy.


METAR-TAF: